createdAt,value
2023-02-11T00:00:08.828Z,104.47
2023-02-11T00:02:36.722Z,103.03
2023-02-11T00:05:05.096Z,102.13
2023-02-11T00:07:33.345Z,98.07
2023-02-11T00:10:02.769Z,103.95
2023-02-11T00:12:32.260Z,102.68
2023-02-11T00:15:00.207Z,102.90
2023-02-11T00:17:28.137Z,103.75
2023-02-11T00:19:56.057Z,102.90
2023-02-11T00:22:23.925Z,104.72
2023-02-11T00:24:51.817Z,99.07
2023-02-11T00:27:19.717Z,103.90
2023-02-11T00:29:48.958Z,105.18
2023-02-11T00:32:16.906Z,105.93
2023-02-11T00:34:44.893Z,102.45
2023-02-11T00:37:13.614Z,102.45
2023-02-11T00:39:43.054Z,98.90
2023-02-11T00:42:14.614Z,103.85
2023-02-11T00:44:43.266Z,103.95
2023-02-11T00:47:12.533Z,104.20
2023-02-11T00:49:41.275Z,105.05
2023-02-11T00:52:09.169Z,104.85
2023-02-11T00:54:37.040Z,104.15
2023-02-11T00:57:05.178Z,104.40
2023-02-11T00:59:33.079Z,103.45
2023-02-11T01:02:04.693Z,105.22
2023-02-11T01:04:34.008Z,104.10
2023-02-11T01:07:01.979Z,105.50
2023-02-11T01:09:30.198Z,104.63
2023-02-11T01:11:58.022Z,105.10
2023-02-11T01:14:25.901Z,104.25
2023-02-11T01:16:53.726Z,101.00
2023-02-11T01:19:22.491Z,101.88
2023-02-11T01:21:51.874Z,102.90
2023-02-11T01:24:23.094Z,99.22
2023-02-11T01:26:51.012Z,97.35
2023-02-11T01:29:18.859Z,97.43
2023-02-11T01:31:46.835Z,102.88
2023-02-11T01:34:14.939Z,103.28
2023-02-11T01:36:42.797Z,101.43
2023-02-11T01:39:12.060Z,94.68
2023-02-11T01:41:40.264Z,101.65
2023-02-11T01:44:26.429Z,102.13
2023-02-11T01:46:54.415Z,110.13
2023-02-11T01:49:25.487Z,103.60
2023-02-11T01:51:58.011Z,102.07
2023-02-11T01:54:47.234Z,102.45
2023-02-11T01:57:23.314Z,102.38
2023-02-11T02:00:01.414Z,102.68
2023-02-11T02:02:45.565Z,99.40
2023-02-11T02:05:21.503Z,100.95
2023-02-11T02:07:57.974Z,99.32
2023-02-11T02:10:28.325Z,96.70
2023-02-11T02:12:56.308Z,105.47
2023-02-11T02:15:32.045Z,104.78
2023-02-11T02:18:08.612Z,104.95
2023-02-11T02:21:16.069Z,100.30
2023-02-11T02:24:15.226Z,103.43
2023-02-11T02:27:07.957Z,102.72
2023-02-11T02:30:17.858Z,102.57
2023-02-11T02:33:02.147Z,106.38
2023-02-11T02:35:41.396Z,112.05
2023-02-11T02:38:12.990Z,102.15
2023-02-11T02:40:45.127Z,100.70
2023-02-11T02:43:13.223Z,103.63
2023-02-11T02:45:41.327Z,104.82
2023-02-11T02:48:25.030Z,103.65
2023-02-11T02:50:56.242Z,104.13
2023-02-11T02:53:33.561Z,105.20
2023-02-11T02:56:03.877Z,104.00
2023-02-11T02:58:54.472Z,100.40
2023-02-11T03:01:31.382Z,102.50
2023-02-11T03:04:06.787Z,104.72
2023-02-11T03:06:39.804Z,104.32
2023-02-11T03:09:11.831Z,105.30
2023-02-11T03:11:40.827Z,104.40
2023-02-11T03:14:11.683Z,103.00
2023-02-11T03:16:40.597Z,105.20
2023-02-11T03:19:12.776Z,105.32
2023-02-11T03:21:43.145Z,103.43
2023-02-11T03:24:14.597Z,105.88
2023-02-11T03:26:47.866Z,105.25
2023-02-11T03:29:18.422Z,104.18
2023-02-11T03:31:55.719Z,106.35
2023-02-11T03:34:29.823Z,105.60
2023-02-11T03:37:04.116Z,103.93
2023-02-11T03:39:35.209Z,104.15
2023-02-11T03:42:04.367Z,106.28
2023-02-11T03:44:36.793Z,107.15
2023-02-11T03:47:06.589Z,107.38
2023-02-11T03:49:36.846Z,106.95
2023-02-11T03:52:06.173Z,107.22
2023-02-11T03:54:34.218Z,106.80
2023-02-11T03:57:02.648Z,104.45
2023-02-11T03:59:30.816Z,107.60
2023-02-11T04:01:59.530Z,103.78
2023-02-11T04:04:27.421Z,108.40
2023-02-11T04:06:57.581Z,101.85
2023-02-11T04:09:25.419Z,104.25
2023-02-11T04:11:53.208Z,106.68
2023-02-11T04:14:21.054Z,105.20
2023-02-11T04:16:49.114Z,107.22
2023-02-11T04:19:16.909Z,105.13
2023-02-11T04:21:44.723Z,102.80
2023-02-11T04:24:15.551Z,107.32
2023-02-11T04:26:43.409Z,108.13
2023-02-11T04:29:11.156Z,107.57
2023-02-11T04:31:38.991Z,110.00
2023-02-11T04:34:06.887Z,108.25
2023-02-11T04:36:34.733Z,106.85
2023-02-11T04:39:02.616Z,107.15
2023-02-11T04:41:31.833Z,109.70
2023-02-11T04:43:59.840Z,108.70
2023-02-11T04:46:27.856Z,109.28
2023-02-11T04:48:55.907Z,115.85
2023-02-11T04:51:23.732Z,112.10
2023-02-11T04:53:51.586Z,111.57
2023-02-11T04:56:19.376Z,111.53
2023-02-11T04:58:48.596Z,111.55
2023-02-11T05:01:17.361Z,112.57
2023-02-11T05:03:45.484Z,112.35
2023-02-11T05:06:13.582Z,116.72
2023-02-11T05:08:41.453Z,110.45
2023-02-11T05:11:10.496Z,115.15
2023-02-11T05:13:38.335Z,112.82
2023-02-11T05:16:07.960Z,112.28
2023-02-11T05:18:38.752Z,116.95
2023-02-11T05:21:08.263Z,112.70
2023-02-11T05:23:36.541Z,109.80
2023-02-11T05:26:04.884Z,111.25
2023-02-11T05:28:33.267Z,112.57
2023-02-11T05:31:01.346Z,114.97
2023-02-11T05:33:30.520Z,115.03
2023-02-11T05:35:59.879Z,113.28
2023-02-11T05:38:27.754Z,117.15
2023-02-11T05:40:56.125Z,113.72
2023-02-11T05:43:24.112Z,109.00
2023-02-11T05:45:52.412Z,116.03
2023-02-11T05:48:20.482Z,114.45
2023-02-11T05:50:49.769Z,110.80
2023-02-11T05:53:17.605Z,116.43
2023-02-11T05:55:45.714Z,112.93
2023-02-11T05:58:13.557Z,113.03
2023-02-11T06:00:41.464Z,116.43
2023-02-11T06:03:09.365Z,115.95
2023-02-11T06:05:37.243Z,115.85
2023-02-11T06:08:06.631Z,113.10
2023-02-11T06:10:34.494Z,115.75
2023-02-11T06:13:02.615Z,114.35
2023-02-11T06:15:30.458Z,116.90
2023-02-11T06:18:02.108Z,118.50
2023-02-11T06:20:32.643Z,119.25
2023-02-11T06:23:00.494Z,118.68
2023-02-11T06:25:29.805Z,116.95
2023-02-11T06:27:57.739Z,115.65
2023-02-11T06:30:25.599Z,119.07
2023-02-11T06:32:54.688Z,119.63
2023-02-11T06:35:22.635Z,121.82
2023-02-11T06:37:50.451Z,117.95
2023-02-11T06:43:14.369Z,117.80
2023-02-11T06:45:42.176Z,117.43
2023-02-11T06:48:10.022Z,120.80
2023-02-11T06:50:38.095Z,117.70
2023-02-11T06:53:05.905Z,117.45
2023-02-11T06:55:36.051Z,118.50
2023-02-11T06:58:04.049Z,118.47
2023-02-11T07:00:33.299Z,118.63
2023-02-11T07:03:01.217Z,119.45
2023-02-11T07:05:29.235Z,117.32
2023-02-11T07:07:57.120Z,120.72
2023-02-11T07:10:24.925Z,121.32
2023-02-11T07:12:53.285Z,122.90
2023-02-11T07:15:21.081Z,121.97
2023-02-11T07:17:50.294Z,122.07
2023-02-11T07:20:18.335Z,121.53
2023-02-11T07:22:46.168Z,121.82
2023-02-11T07:25:13.981Z,123.05
2023-02-11T07:27:41.954Z,122.10
2023-02-11T07:30:11.202Z,121.53
2023-02-11T07:32:39.027Z,120.70
2023-02-11T07:35:08.859Z,122.43
2023-02-11T07:37:36.970Z,120.18
2023-02-11T07:40:05.263Z,121.20
2023-02-11T07:42:33.092Z,124.00
2023-02-11T07:45:00.960Z,124.30
2023-02-11T07:47:28.840Z,123.95
2023-02-11T07:49:56.869Z,126.25
2023-02-11T07:52:26.056Z,126.18
2023-02-11T07:54:53.870Z,126.50
2023-02-11T07:57:21.639Z,126.55
2023-02-11T07:59:49.453Z,125.38
2023-02-11T08:02:17.430Z,127.00
2023-02-11T08:04:46.860Z,125.32
2023-02-11T08:07:16.441Z,126.60
2023-02-11T08:09:45.994Z,127.65
2023-02-11T08:12:13.843Z,125.80
2023-02-11T08:14:41.674Z,126.75
2023-02-11T08:17:09.484Z,126.88
2023-02-11T08:19:37.338Z,125.85
2023-02-11T08:22:05.133Z,125.90
2023-02-11T08:24:33.018Z,127.18
2023-02-11T08:27:02.226Z,128.48
2023-02-11T08:29:30.515Z,125.13
2023-02-11T08:31:58.361Z,125.53
2023-02-11T08:34:26.192Z,129.15
2023-02-11T08:36:54.010Z,128.35
2023-02-11T08:39:23.142Z,126.68
2023-02-11T08:41:52.709Z,126.80
2023-02-11T08:44:22.571Z,127.03
2023-02-11T08:46:50.854Z,128.73
2023-02-11T08:49:18.934Z,121.95
2023-02-11T08:51:47.254Z,126.95
2023-02-11T08:54:15.489Z,127.97
2023-02-11T08:56:43.386Z,129.23
2023-02-11T08:59:14.544Z,130.88
2023-02-11T09:01:44.827Z,125.07
2023-02-11T09:04:12.777Z,130.75
2023-02-11T09:06:40.892Z,128.57
2023-02-11T09:09:11.954Z,126.40
2023-02-11T09:11:40.672Z,128.52
2023-02-11T09:14:08.587Z,129.10
2023-02-11T09:16:37.554Z,128.50
2023-02-11T09:19:07.124Z,127.57
2023-02-11T09:21:35.001Z,128.75
2023-02-11T09:24:02.904Z,127.03
2023-02-11T09:26:32.643Z,129.23
2023-02-11T09:29:01.138Z,131.98
2023-02-11T09:31:31.607Z,130.50
2023-02-11T09:34:01.284Z,131.65
2023-02-11T09:36:32.199Z,132.38
2023-02-11T09:39:02.286Z,132.48
2023-02-11T09:41:40.662Z,130.27
2023-02-11T09:44:10.606Z,131.50
2023-02-11T09:46:42.461Z,126.50
2023-02-11T09:49:20.614Z,124.40
2023-02-11T09:51:53.474Z,125.18
2023-02-11T09:54:27.172Z,126.95
2023-02-11T09:56:55.002Z,127.45
2023-02-11T09:59:22.931Z,128.45
2023-02-11T10:01:52.617Z,130.85
2023-02-11T10:04:32.417Z,127.32
2023-02-11T10:07:09.377Z,128.70
2023-02-11T10:10:05.668Z,128.23
2023-02-11T10:12:47.995Z,127.03
2023-02-11T10:15:27.373Z,127.85
2023-02-11T10:18:12.073Z,128.02
2023-02-11T10:20:47.606Z,128.23
2023-02-11T10:23:19.592Z,106.70
2023-02-11T10:25:50.722Z,107.53
2023-02-11T10:28:19.849Z,104.72
2023-02-11T10:30:55.782Z,106.13
2023-02-11T10:33:27.062Z,104.50
2023-02-11T10:35:55.249Z,95.22
2023-02-11T10:38:24.557Z,100.53
2023-02-11T10:40:52.674Z,102.60
2023-02-11T10:43:24.113Z,105.07
2023-02-11T10:45:53.307Z,106.20
2023-02-11T10:48:41.255Z,102.43
2023-02-11T10:51:16.005Z,102.82
2023-02-11T10:53:45.632Z,107.03
2023-02-11T10:56:15.797Z,106.68
2023-02-11T10:58:47.019Z,107.28
2023-02-11T11:01:24.259Z,107.90
2023-02-11T11:03:53.882Z,108.47
2023-02-11T11:06:31.008Z,108.55
2023-02-11T11:09:01.086Z,107.80
2023-02-11T11:11:29.297Z,108.35
2023-02-11T11:13:59.185Z,108.43
2023-02-11T11:16:28.298Z,106.30
2023-02-11T11:19:21.304Z,108.80
2023-02-11T11:21:51.307Z,107.10
2023-02-11T11:24:23.491Z,108.90
2023-02-11T11:26:54.911Z,109.97
2023-02-11T11:29:26.853Z,108.78
2023-02-11T11:31:57.003Z,109.85
2023-02-11T11:34:29.142Z,112.30
2023-02-11T11:36:58.035Z,112.45
2023-02-11T11:39:29.086Z,111.82
2023-02-11T11:41:58.965Z,112.82
2023-02-11T11:44:32.101Z,109.60
2023-02-11T11:47:17.150Z,112.85
2023-02-11T11:49:49.170Z,111.28
2023-02-11T11:52:21.998Z,112.40
2023-02-11T11:54:54.860Z,110.32
2023-02-11T11:57:27.109Z,109.95
2023-02-11T11:59:55.027Z,109.72
2023-02-11T12:02:48.829Z,110.65
2023-02-11T12:05:23.764Z,107.05
2023-02-11T12:08:00.904Z,109.85
2023-02-11T12:10:57.867Z,110.30
2023-02-11T12:13:40.592Z,108.13
2023-02-11T12:16:17.641Z,111.88
2023-02-11T12:19:07.733Z,110.32
2023-02-11T12:21:42.860Z,108.22
2023-02-11T12:24:34.464Z,110.53
2023-02-11T12:27:08.024Z,110.53
2023-02-11T12:29:44.164Z,111.35
2023-02-11T12:32:19.138Z,109.68
2023-02-11T12:35:04.193Z,110.65
2023-02-11T12:37:42.015Z,111.75
2023-02-11T12:40:16.081Z,111.57
2023-02-11T12:43:17.901Z,112.50
2023-02-11T12:46:01.153Z,110.03
2023-02-11T12:48:52.445Z,111.65
2023-02-11T12:51:28.189Z,102.82
2023-02-11T12:54:22.766Z,108.30
2023-02-11T12:56:54.132Z,111.18
2023-02-11T12:59:36.196Z,106.30
2023-02-11T13:02:12.574Z,113.85
2023-02-11T13:04:42.786Z,112.57
2023-02-11T13:07:13.958Z,115.10
2023-02-11T13:09:45.046Z,115.00
2023-02-11T13:12:31.965Z,110.70
2023-02-11T13:15:04.941Z,112.80
2023-02-11T13:17:38.702Z,111.25
2023-02-11T13:20:19.926Z,112.53
2023-02-11T13:22:51.917Z,112.60
2023-02-11T13:25:25.694Z,115.38
2023-02-11T13:27:59.048Z,113.97
2023-02-11T13:30:32.814Z,111.53
2023-02-11T13:33:34.372Z,112.28
2023-02-11T13:36:14.618Z,109.90
2023-02-11T13:38:42.906Z,106.70
2023-02-11T13:41:18.171Z,110.85
2023-02-11T13:43:46.473Z,106.35
2023-02-11T13:46:17.138Z,109.97
2023-02-11T13:48:48.913Z,108.93
2023-02-11T13:51:18.145Z,106.60
2023-02-11T13:53:48.050Z,109.93
2023-02-11T13:56:26.142Z,112.00
2023-02-11T13:58:54.020Z,109.30
2023-02-11T14:01:43.151Z,111.75
2023-02-11T14:04:48.793Z,106.93
2023-02-11T14:07:44.785Z,108.03
2023-02-11T14:10:52.409Z,110.85
2023-02-11T14:13:25.551Z,110.65
2023-02-11T14:16:06.880Z,113.07
2023-02-11T14:18:42.775Z,111.97
2023-02-11T14:21:13.511Z,112.93
2023-02-11T14:23:41.893Z,112.70
2023-02-11T14:26:28.405Z,114.80
2023-02-11T14:29:04.890Z,114.03
2023-02-11T14:31:37.986Z,116.65
2023-02-11T14:34:25.376Z,115.95
2023-02-11T14:37:26.866Z,114.05
2023-02-11T14:39:59.862Z,111.40
2023-02-11T14:42:30.861Z,116.13
2023-02-11T14:45:04.908Z,119.72
2023-02-11T14:47:38.142Z,116.07
2023-02-11T14:50:11.865Z,118.63
2023-02-11T14:52:40.323Z,113.00
2023-02-11T14:55:25.929Z,117.85
2023-02-11T14:58:07.062Z,115.50
2023-02-11T15:00:34.978Z,113.75
2023-02-11T15:03:02.925Z,118.75
2023-02-11T15:05:32.728Z,114.28
2023-02-11T15:08:02.468Z,117.22
2023-02-11T15:10:33.024Z,116.43
2023-02-11T15:13:01.950Z,115.93
2023-02-11T15:15:30.520Z,114.32
2023-02-11T15:18:01.144Z,113.70
2023-02-11T15:20:32.795Z,116.88
2023-02-11T15:23:02.891Z,119.95
2023-02-11T15:25:33.806Z,118.57
2023-02-11T15:28:02.240Z,117.78
2023-02-11T15:30:34.765Z,119.65
2023-02-11T15:33:05.515Z,115.53
2023-02-11T15:35:36.791Z,116.82
2023-02-11T15:38:05.804Z,113.72
2023-02-11T15:40:35.695Z,111.97
2023-02-11T15:43:05.981Z,111.07
2023-02-11T15:45:35.159Z,115.68
2023-02-11T15:48:10.744Z,115.32
2023-02-11T15:50:40.966Z,112.75
2023-02-11T15:53:22.938Z,115.22
2023-02-11T15:55:52.976Z,112.50
2023-02-11T15:58:21.310Z,113.25
2023-02-11T16:00:51.380Z,117.45
2023-02-11T16:03:23.903Z,116.97
2023-02-11T16:05:53.356Z,112.78
2023-02-11T16:08:24.418Z,111.30
2023-02-11T16:11:02.892Z,114.05
2023-02-11T16:13:33.589Z,115.18
2023-02-11T16:16:04.420Z,113.47
2023-02-11T16:18:39.670Z,110.18
2023-02-11T16:21:16.711Z,115.85
2023-02-11T16:23:50.810Z,115.75
2023-02-11T16:26:23.820Z,110.18
2023-02-11T16:28:52.169Z,116.65
2023-02-11T16:31:20.368Z,113.70
2023-02-11T16:33:48.365Z,116.00
2023-02-11T16:36:18.163Z,115.93
2023-02-11T16:38:46.117Z,116.95
2023-02-11T16:41:14.324Z,118.35
2023-02-11T16:43:42.148Z,115.03
2023-02-11T16:46:12.816Z,117.72
2023-02-11T16:48:40.663Z,117.82
2023-02-11T16:51:10.205Z,115.85
2023-02-11T16:53:39.399Z,116.22
2023-02-11T16:56:07.495Z,121.60
2023-02-11T16:58:35.383Z,115.70
2023-02-11T17:01:03.325Z,110.63
2023-02-11T17:03:35.596Z,118.50
2023-02-11T17:06:05.629Z,121.53
2023-02-11T17:08:33.773Z,119.55
2023-02-11T17:11:03.120Z,115.65
2023-02-11T17:13:30.999Z,125.65
2023-02-11T17:15:58.942Z,120.63
2023-02-11T17:18:26.863Z,120.38
2023-02-11T17:20:54.760Z,119.68
2023-02-11T17:23:22.644Z,122.28
2023-02-11T17:25:56.838Z,126.32
2023-02-11T17:28:26.195Z,123.38
2023-02-11T17:30:54.190Z,124.85
2023-02-11T17:33:22.496Z,121.82
2023-02-11T17:35:50.838Z,125.32
2023-02-11T17:38:18.894Z,119.00
2023-02-11T17:40:46.757Z,121.75
2023-02-11T17:43:15.683Z,124.22
2023-02-11T17:45:44.942Z,121.78
2023-02-11T17:48:12.819Z,121.72
2023-02-11T17:50:40.660Z,119.30
2023-02-11T17:53:08.548Z,118.68
2023-02-11T17:55:38.398Z,120.05
2023-02-11T17:58:06.340Z,120.88
2023-02-11T18:00:34.217Z,121.43
2023-02-11T18:03:03.690Z,116.75
2023-02-11T18:05:35.229Z,115.85
2023-02-11T18:08:03.320Z,116.47
2023-02-11T18:10:31.716Z,116.68
2023-02-11T18:12:59.620Z,115.82
2023-02-11T18:15:27.826Z,116.28
2023-02-11T18:17:56.750Z,112.18
2023-02-11T18:20:25.934Z,113.75
2023-02-11T18:22:53.822Z,118.07
2023-02-11T18:25:21.744Z,112.47
2023-02-11T18:27:50.686Z,118.00
2023-02-11T18:30:22.098Z,118.05
2023-02-11T18:32:54.530Z,118.40
2023-02-11T18:35:22.612Z,118.20
2023-02-11T18:37:53.002Z,117.43
2023-02-11T18:40:21.083Z,119.00
2023-02-11T18:42:48.883Z,117.93
2023-02-11T18:45:16.806Z,116.15
2023-02-11T18:47:44.666Z,117.80
2023-02-11T18:50:15.481Z,121.15
2023-02-11T18:52:43.608Z,115.30
2023-02-11T18:55:12.892Z,121.65
2023-02-11T18:57:40.824Z,120.72
2023-02-11T19:00:10.795Z,122.72
2023-02-11T19:02:38.645Z,118.22
2023-02-11T19:05:07.054Z,113.90
2023-02-11T19:07:34.952Z,118.70
2023-02-11T19:10:02.839Z,117.68
2023-02-11T19:12:33.131Z,118.60
2023-02-11T19:15:01.480Z,113.88
2023-02-11T19:17:29.291Z,118.78
2023-02-11T19:19:57.147Z,118.07
2023-02-11T19:22:25.065Z,119.22
2023-02-11T19:24:52.904Z,118.43
2023-02-11T19:27:20.776Z,117.28
2023-02-11T19:29:49.950Z,116.78
2023-02-11T19:32:17.949Z,116.85
2023-02-11T19:34:45.806Z,113.82
2023-02-11T19:37:13.740Z,113.85
2023-02-11T19:39:41.846Z,114.88
2023-02-11T19:42:09.737Z,118.03
2023-02-11T19:44:37.605Z,119.22
2023-02-11T19:47:07.574Z,118.28
2023-02-11T19:49:35.404Z,118.35
2023-02-11T19:52:03.290Z,118.78
2023-02-11T19:54:31.131Z,114.50
2023-02-11T19:56:59.465Z,120.05
2023-02-11T19:59:27.541Z,118.68
2023-02-11T20:01:55.420Z,120.47
2023-02-11T20:04:25.169Z,117.65
2023-02-11T20:06:53.024Z,117.60
2023-02-11T20:09:21.714Z,115.45
2023-02-11T20:11:50.122Z,110.88
2023-02-11T20:14:17.927Z,117.72
2023-02-11T20:16:49.552Z,119.55
2023-02-11T20:19:19.164Z,120.13
2023-02-11T20:21:50.271Z,119.18
2023-02-11T20:24:19.396Z,121.95
2023-02-11T20:26:48.407Z,120.85
2023-02-11T20:29:17.711Z,124.97
2023-02-11T20:31:45.958Z,124.85
2023-02-11T20:34:13.957Z,117.78
2023-02-11T20:36:42.014Z,119.10
2023-02-11T20:39:16.956Z,120.18
2023-02-11T20:41:45.871Z,119.22
2023-02-11T20:44:14.170Z,119.32
2023-02-11T20:46:46.513Z,118.93
2023-02-11T20:49:15.334Z,114.40
2023-02-11T20:51:43.813Z,115.10
2023-02-11T20:54:14.782Z,119.35
2023-02-11T20:56:44.468Z,118.55
2023-02-11T20:59:14.064Z,118.88
2023-02-11T21:01:44.111Z,118.32
2023-02-11T21:04:13.317Z,121.15
2023-02-11T21:06:42.995Z,118.15
2023-02-11T21:09:16.127Z,117.25
2023-02-11T21:11:44.141Z,117.53
2023-02-11T21:14:12.858Z,117.32
2023-02-11T21:16:41.027Z,119.07
2023-02-11T21:19:09.073Z,119.22
2023-02-11T21:21:38.011Z,120.00
2023-02-11T21:24:06.470Z,119.05
2023-02-11T21:26:36.528Z,118.20
2023-02-11T21:29:04.762Z,115.25
2023-02-11T21:31:34.008Z,119.22
2023-02-11T21:34:02.357Z,118.80
2023-02-11T21:36:30.812Z,118.97
2023-02-11T21:38:58.939Z,115.43
2023-02-11T21:41:27.384Z,117.32
2023-02-11T21:43:56.624Z,113.63
2023-02-11T21:46:24.674Z,116.95
2023-02-11T21:48:52.710Z,121.70
2023-02-11T21:51:22.839Z,120.25
2023-02-11T21:53:54.314Z,119.13
2023-02-11T21:56:22.651Z,120.40
2023-02-11T21:58:53.544Z,122.45
2023-02-11T22:01:24.649Z,117.65
2023-02-11T22:03:52.791Z,112.32
2023-02-11T22:06:22.734Z,110.30
2023-02-11T22:08:51.315Z,115.13
2023-02-11T22:11:19.898Z,112.25
2023-02-11T22:13:48.401Z,116.00
2023-02-11T22:16:17.891Z,116.55
2023-02-11T22:18:47.385Z,113.18
2023-02-11T22:21:17.107Z,114.82
2023-02-11T22:23:45.325Z,113.55
2023-02-11T22:26:15.255Z,116.60
2023-02-11T22:28:43.491Z,116.93
2023-02-11T22:31:13.502Z,116.65
2023-02-11T22:33:42.226Z,115.75
2023-02-11T22:36:16.730Z,115.60
2023-02-11T22:38:44.587Z,118.50
2023-02-11T22:41:13.199Z,117.03
2023-02-11T22:43:42.445Z,115.35
2023-02-11T22:46:12.172Z,108.10
2023-02-11T22:48:40.110Z,109.20
2023-02-11T22:51:09.360Z,112.00
2023-02-11T22:53:38.591Z,114.60
2023-02-11T22:56:08.052Z,113.32
2023-02-11T22:58:36.501Z,111.28
2023-02-11T23:01:04.701Z,113.68
2023-02-11T23:03:33.083Z,113.90
2023-02-11T23:06:01.692Z,115.05
2023-02-11T23:08:30.265Z,112.90
2023-02-11T23:11:05.084Z,112.20
2023-02-11T23:13:35.644Z,113.03
2023-02-11T23:16:05.850Z,114.15
2023-02-11T23:18:34.088Z,113.55
2023-02-11T23:21:06.657Z,115.57
2023-02-11T23:23:34.964Z,110.88
2023-02-11T23:26:04.610Z,116.65
2023-02-11T23:28:32.583Z,112.65
2023-02-11T23:31:00.491Z,115.68
2023-02-11T23:33:28.546Z,119.43
2023-02-11T23:35:56.552Z,114.72
2023-02-11T23:38:24.635Z,117.40
2023-02-11T23:40:52.472Z,116.57
2023-02-11T23:43:24.056Z,116.30
2023-02-11T23:45:53.044Z,111.43
2023-02-11T23:48:21.068Z,114.90
2023-02-11T23:50:48.921Z,117.32
2023-02-11T23:53:16.904Z,113.45
2023-02-11T23:55:45.878Z,106.93
2023-02-11T23:58:14.658Z,114.32
